createdAt,value
2019-05-12T00:01:23.344Z,98604.19
2019-05-12T00:03:58.098Z,98604.19
2019-05-12T00:06:31.420Z,98601.20
2019-05-12T00:09:07.928Z,98604.51
2019-05-12T00:11:42.993Z,98604.51
2019-05-12T00:14:17.638Z,98612.80
2019-05-12T00:16:49.217Z,98609.58
2019-05-12T00:19:21.627Z,98611.47
2019-05-12T00:21:53.293Z,98611.47
2019-05-12T00:24:28.213Z,98605.35
2019-05-12T00:27:04.958Z,98597.31
2019-05-12T00:29:37.804Z,98584.80
2019-05-12T00:32:09.479Z,98584.80
2019-05-12T00:34:43.584Z,98579.17
2019-05-12T00:37:18.493Z,98572.50
2019-05-12T00:39:50.616Z,98568.44
2019-05-12T00:42:24.408Z,98574.33
2019-05-12T00:44:58.546Z,98574.33
2019-05-12T00:47:31.673Z,98583.69
2019-05-12T00:50:04.739Z,98579.72
2019-05-12T00:52:38.794Z,98579.72
2019-05-12T00:55:12.709Z,98572.21
2019-05-12T00:57:45.574Z,98575.72
2019-05-12T01:00:19.942Z,98571.45
2019-05-12T01:02:51.738Z,98571.45
2019-05-12T01:05:23.764Z,98577.84
2019-05-12T01:07:58.239Z,98577.84
2019-05-12T01:10:31.191Z,98577.55
2019-05-12T01:13:04.823Z,98582.65
2019-05-12T01:15:38.630Z,98585.87
2019-05-12T01:18:13.478Z,98584.53
2019-05-12T01:20:47.967Z,98592.27
2019-05-12T01:23:23.533Z,98585.61
2019-05-12T01:25:59.118Z,98594.42
2019-05-12T01:28:31.685Z,98598.19
2019-05-12T01:31:05.225Z,98598.19
2019-05-12T01:33:41.520Z,98596.86
2019-05-12T01:36:18.036Z,98596.86
2019-05-12T01:38:51.927Z,98592.80
2019-05-12T01:41:23.287Z,98592.80
2019-05-12T01:43:58.462Z,98593.55
2019-05-12T01:46:30.760Z,98600.48
2019-05-12T01:49:03.801Z,98606.59
2019-05-12T01:51:38.522Z,98605.48
2019-05-12T01:54:15.017Z,98613.26
2019-05-12T01:56:48.370Z,98628.94
2019-05-12T01:59:21.320Z,98628.94
2019-05-12T02:01:52.971Z,98631.86
2019-05-12T02:04:25.917Z,98626.69
2019-05-12T02:06:59.047Z,98624.70
2019-05-12T02:09:34.621Z,98622.82
2019-05-12T02:12:08.139Z,98632.16
2019-05-12T02:14:43.559Z,98625.20
2019-05-12T02:17:17.937Z,98628.67
2019-05-12T02:19:50.061Z,98631.08
2019-05-12T02:22:24.008Z,98626.01
2019-05-12T02:24:58.729Z,98627.60
2019-05-12T02:27:30.228Z,98640.67
2019-05-12T02:30:03.345Z,98640.67
2019-05-12T02:32:48.158Z,98645.75
2019-05-12T02:35:15.883Z,98645.75
2019-05-12T02:37:48.051Z,98646.83
2019-05-12T02:40:24.888Z,98648.71
2019-05-12T02:42:57.077Z,98642.34
2019-05-12T02:45:29.154Z,98648.48
2019-05-12T02:48:01.027Z,98646.83
2019-05-12T02:50:37.939Z,98646.83
2019-05-12T02:53:09.909Z,98650.86
2019-05-12T02:55:45.233Z,98650.86
2019-05-12T02:58:25.185Z,98654.63
2019-05-12T03:00:57.825Z,98655.97
2019-05-12T03:03:35.005Z,98662.05
2019-05-12T03:06:07.274Z,98662.05
2019-05-12T03:08:44.851Z,98669.00
2019-05-12T03:11:17.850Z,98668.71
2019-05-12T03:13:51.186Z,98670.34
2019-05-12T03:16:25.650Z,98675.67
2019-05-12T03:18:58.242Z,98675.16
2019-05-12T03:21:31.233Z,98681.08
2019-05-12T03:24:06.070Z,98681.08
2019-05-12T03:26:38.234Z,98687.70
2019-05-12T03:29:14.792Z,98690.59
2019-05-12T03:31:48.882Z,98690.59
2019-05-12T03:34:20.979Z,98689.00
2019-05-12T03:36:58.949Z,98697.20
2019-05-12T03:39:34.245Z,98699.09
2019-05-12T03:42:06.351Z,98699.09
2019-05-12T03:44:44.495Z,98591.39
2019-05-12T03:47:18.105Z,98707.34
2019-05-12T03:49:50.313Z,98707.34
2019-05-12T03:52:24.410Z,98712.87
2019-05-12T03:54:57.291Z,98722.76
2019-05-12T03:57:34.273Z,98722.76
2019-05-12T04:00:05.365Z,98725.05
2019-05-12T04:02:39.431Z,98725.05
2019-05-12T04:05:15.168Z,98734.83
2019-05-12T04:07:45.365Z,98735.34
2019-05-12T04:10:18.385Z,98735.34
2019-05-12T04:12:54.860Z,98744.20
2019-05-12T04:15:28.172Z,98750.91
2019-05-12T04:18:04.915Z,98750.91
2019-05-12T04:20:38.194Z,98750.54
2019-05-12T04:23:09.555Z,98746.87
2019-05-12T04:25:51.937Z,98749.57
2019-05-12T04:28:20.581Z,98755.39
2019-05-12T04:30:54.513Z,98761.58
2019-05-12T04:33:27.488Z,98761.58
2019-05-12T04:36:00.645Z,98766.91
2019-05-12T04:38:35.497Z,98762.39
2019-05-12T04:41:07.701Z,98762.72
2019-05-12T04:43:44.646Z,98772.72
2019-05-12T04:46:15.695Z,98772.72
2019-05-12T04:48:49.711Z,98783.94
2019-05-12T04:51:25.862Z,98782.31
2019-05-12T04:53:56.871Z,98790.54
2019-05-12T04:56:29.816Z,98793.02
2019-05-12T04:59:04.976Z,98793.02
2019-05-12T05:01:36.677Z,98794.28
2019-05-12T05:04:10.968Z,98806.84
2019-05-12T05:06:45.199Z,98806.84
2019-05-12T05:09:17.799Z,98813.02
2019-05-12T05:11:54.303Z,98826.36
2019-05-12T05:14:27.653Z,98826.36
2019-05-12T05:16:59.282Z,98829.03
2019-05-12T05:19:33.731Z,98836.03
2019-05-12T05:22:05.794Z,98836.03
2019-05-12T05:24:39.885Z,98840.34
2019-05-12T05:27:13.375Z,98837.07
2019-05-12T05:29:46.742Z,98848.63
2019-05-12T05:32:19.851Z,98851.00
2019-05-12T05:34:57.787Z,98844.63
2019-05-12T05:37:44.121Z,98849.97
2019-05-12T05:40:28.445Z,98840.97
2019-05-12T05:43:05.733Z,98842.48
2019-05-12T05:45:54.518Z,98844.34
2019-05-12T05:48:48.350Z,98853.02
2019-05-12T05:51:21.056Z,98853.02
2019-05-12T05:53:54.015Z,98853.34
2019-05-12T05:56:42.459Z,98852.09
2019-05-12T05:59:31.472Z,98856.28
2019-05-12T06:02:08.210Z,98862.09
2019-05-12T06:04:49.885Z,98856.72
2019-05-12T06:07:39.601Z,98866.58
2019-05-12T06:10:11.282Z,98866.58
2019-05-12T06:12:46.426Z,98870.39
2019-05-12T06:15:53.610Z,98870.39
2019-05-12T06:18:39.377Z,98879.55
2019-05-12T06:21:46.465Z,98879.55
2019-05-12T06:24:35.787Z,98878.77
2019-05-12T06:27:20.304Z,98879.58
2019-05-12T06:30:17.827Z,98879.11
2019-05-12T06:33:00.372Z,98882.04
2019-05-12T06:36:13.779Z,98888.75
2019-05-12T06:38:59.480Z,98884.48
2019-05-12T06:41:50.231Z,98891.38
2019-05-12T06:44:39.808Z,98892.23
2019-05-12T06:47:28.686Z,98901.61
2019-05-12T06:50:19.115Z,98898.61
2019-05-12T06:52:53.131Z,98898.61
2019-05-12T06:55:34.340Z,98901.09
2019-05-12T06:58:38.595Z,98894.90
2019-05-12T07:01:49.900Z,98908.95
2019-05-12T07:04:59.404Z,98908.95
2019-05-12T07:07:35.579Z,98911.17
2019-05-12T07:10:11.626Z,98911.17
2019-05-12T07:12:43.565Z,98905.20
2019-05-12T07:15:16.278Z,98917.30
2019-05-12T07:17:55.851Z,98917.30
2019-05-12T07:21:04.184Z,98925.16
2019-05-12T07:23:37.286Z,98925.16
2019-05-12T07:26:48.134Z,98923.74
2019-05-12T07:29:47.136Z,98930.94
2019-05-12T07:32:59.649Z,98935.38
2019-05-12T07:36:06.458Z,98934.94
2019-05-12T07:38:43.267Z,98947.39
2019-05-12T07:41:52.686Z,98947.39
2019-05-12T07:44:44.102Z,98958.31
2019-05-12T07:47:38.292Z,98953.98
2019-05-12T07:50:50.131Z,98957.25
2019-05-12T07:53:38.590Z,98967.33
2019-05-12T07:56:10.042Z,98967.33
2019-05-12T07:58:47.466Z,98973.78
2019-05-12T08:01:28.348Z,98977.92
2019-05-12T08:04:39.954Z,98977.92
2019-05-12T08:07:10.520Z,98970.33
2019-05-12T08:09:43.248Z,98976.59
2019-05-12T08:12:16.445Z,98984.45
2019-05-12T08:14:49.217Z,98981.56
2019-05-12T08:17:59.557Z,98983.67
2019-05-12T08:20:34.426Z,98986.02
2019-05-12T08:23:10.690Z,98979.23
2019-05-12T08:25:43.774Z,98979.23
2019-05-12T08:28:19.320Z,98981.31
2019-05-12T08:30:52.196Z,98990.73
2019-05-12T08:33:24.196Z,98997.83
2019-05-12T08:35:57.048Z,98997.83
2019-05-12T08:38:29.150Z,99003.56
2019-05-12T08:41:00.623Z,99007.25
2019-05-12T08:43:34.208Z,99007.25
2019-05-12T08:46:12.086Z,99015.58
2019-05-12T08:48:44.806Z,99023.88
2019-05-12T08:51:19.432Z,99023.88
2019-05-12T08:53:56.150Z,99028.69
2019-05-12T08:56:27.005Z,99031.40
2019-05-12T09:01:34.153Z,99032.28
2019-05-12T09:04:12.112Z,99035.47
2019-05-12T09:06:40.470Z,99042.44
2019-05-12T09:11:44.024Z,99059.23
2019-05-12T09:14:15.563Z,99059.71
2019-05-12T09:16:55.961Z,99068.50
2019-05-12T09:19:26.641Z,99060.74
2019-05-12T09:21:56.639Z,99081.34
2019-05-12T09:26:58.991Z,99090.98
2019-05-12T09:29:29.153Z,99094.98
2019-05-12T09:32:05.323Z,99083.62
2019-05-12T09:34:44.756Z,99095.65
2019-05-12T09:37:14.251Z,99095.65
2019-05-12T09:39:47.812Z,99106.90
2019-05-12T09:42:25.594Z,99112.02
2019-05-12T09:44:54.163Z,99112.02
2019-05-12T09:47:27.728Z,99120.47
2019-05-12T09:49:58.780Z,99132.19
2019-05-12T09:52:30.157Z,99132.19
2019-05-12T09:55:04.076Z,99133.44
2019-05-12T09:57:40.784Z,99141.15
2019-05-12T10:00:09.218Z,99143.94
2019-05-12T10:02:40.504Z,99159.53
2019-05-12T10:05:14.445Z,99159.53
2019-05-12T10:07:46.023Z,99158.42
2019-05-12T10:10:17.501Z,99157.94
2019-05-12T10:12:50.636Z,99157.94
2019-05-12T10:15:28.577Z,99175.38
2019-05-12T10:18:00.257Z,99180.72
2019-05-12T10:20:35.243Z,99192.05
2019-05-12T10:23:10.102Z,99192.05
2019-05-12T10:25:44.358Z,99202.50
2019-05-12T10:28:16.268Z,99206.55
2019-05-12T10:30:55.308Z,99223.84
2019-05-12T10:33:23.122Z,99223.84
2019-05-12T10:35:54.424Z,99233.52
2019-05-12T10:38:27.664Z,99233.52
2019-05-12T10:40:59.098Z,99239.42
2019-05-12T10:43:30.410Z,99242.23
2019-05-12T10:46:04.191Z,99242.23
2019-05-12T10:48:37.109Z,99258.59
2019-05-12T10:51:08.639Z,99258.59
2019-05-12T10:53:48.757Z,99262.30
2019-05-12T10:56:34.999Z,99275.87
2019-05-12T10:59:13.361Z,99275.63
2019-05-12T11:01:48.853Z,99275.63
2019-05-12T11:04:36.844Z,99277.23
2019-05-12T11:07:23.050Z,99284.44
2019-05-12T11:10:15.147Z,99284.44
2019-05-12T11:12:47.892Z,99289.77
2019-05-12T11:15:39.685Z,99289.02
2019-05-12T11:18:30.527Z,99298.80
2019-05-12T11:21:13.927Z,99295.71
2019-05-12T11:23:58.778Z,99294.08
2019-05-12T11:26:33.854Z,99294.08
2019-05-12T11:29:05.502Z,99302.69
2019-05-12T11:31:39.993Z,99319.27
2019-05-12T11:34:11.612Z,99316.92
2019-05-12T11:36:49.198Z,99317.50
2019-05-12T11:39:38.690Z,99330.71
2019-05-12T11:42:07.901Z,99330.71
2019-05-12T11:44:53.821Z,99332.80
2019-05-12T11:47:28.871Z,99347.47
2019-05-12T11:50:09.906Z,99345.69
2019-05-12T11:52:52.334Z,99366.75
2019-05-12T11:55:29.345Z,99369.36
2019-05-12T11:58:00.368Z,99367.39
2019-05-12T12:00:47.622Z,99367.39
2019-05-12T12:03:23.368Z,99376.97
2019-05-12T12:06:14.818Z,99376.97
2019-05-12T12:08:46.224Z,99394.06
2019-05-12T12:11:25.547Z,99394.06
2019-05-12T12:14:00.232Z,99396.46
2019-05-12T12:16:28.544Z,99396.46
2019-05-12T12:19:16.847Z,99400.73
2019-05-12T12:21:49.990Z,99404.03
2019-05-12T12:24:30.067Z,99415.73
2019-05-12T12:26:54.830Z,99415.73
2019-05-12T12:29:27.981Z,99421.95
2019-05-12T12:31:59.522Z,99424.94
2019-05-12T12:34:33.055Z,99431.60
2019-05-12T12:37:24.093Z,99433.38
2019-05-12T12:39:55.011Z,99433.38
2019-05-12T12:42:30.306Z,99442.13
2019-05-12T12:45:40.253Z,99436.49
2019-05-12T12:48:13.540Z,99436.49
2019-05-12T12:50:53.429Z,99446.88
2019-05-12T12:56:06.255Z,99459.83
2019-05-12T12:58:37.901Z,99468.95
2019-05-12T13:01:14.157Z,99471.48
2019-05-12T13:03:46.126Z,99475.91
2019-05-12T13:06:43.728Z,99475.91
2019-05-12T13:09:33.422Z,99482.20
2019-05-12T13:12:20.441Z,99487.15
2019-05-12T13:14:53.228Z,99483.31
2019-05-12T13:17:36.520Z,99491.66
2019-05-12T13:20:05.707Z,99492.56
2019-05-12T13:22:59.499Z,99498.26
2019-05-12T13:25:33.720Z,99500.81
2019-05-12T13:28:18.639Z,99500.81
2019-05-12T13:30:49.675Z,99509.63
2019-05-12T13:33:44.238Z,99507.56
2019-05-12T13:36:35.457Z,99510.12
2019-05-12T13:39:16.435Z,99517.21
2019-05-12T13:42:00.242Z,99514.16
2019-05-12T13:44:36.442Z,99512.04
2019-05-12T13:47:21.491Z,99513.14
2019-05-12T13:49:54.417Z,99511.22
2019-05-12T13:52:30.160Z,99522.97
2019-05-12T13:55:00.215Z,99522.58
2019-05-12T13:57:34.254Z,99528.06
2019-05-12T14:00:14.926Z,99533.59
2019-05-12T14:02:55.536Z,99536.05
2019-05-12T14:05:27.217Z,99539.73
2019-05-12T14:08:03.727Z,99542.12
2019-05-12T14:10:46.966Z,99544.47
2019-05-12T14:13:14.177Z,99548.55
2019-05-12T14:15:48.763Z,99557.95
2019-05-12T14:18:22.777Z,99551.28
2019-05-12T14:21:00.211Z,99554.45
2019-05-12T14:23:28.573Z,99561.03
2019-05-12T14:26:02.126Z,99563.84
2019-05-12T14:28:44.315Z,99563.84
2019-05-12T14:31:24.446Z,99570.28
2019-05-12T14:33:46.400Z,99574.78
2019-05-12T14:36:22.119Z,99575.91
2019-05-12T14:39:09.890Z,99577.44
2019-05-12T14:41:44.398Z,99584.41
2019-05-12T14:44:15.175Z,99584.41
2019-05-12T14:46:58.605Z,99586.48
2019-05-12T14:49:30.612Z,99588.09
2019-05-12T14:52:06.345Z,99590.84
2019-05-12T14:54:37.722Z,99604.04
2019-05-12T14:57:09.327Z,99598.32
2019-05-12T14:59:41.209Z,99596.70
2019-05-12T15:02:13.623Z,99607.95
2019-05-12T15:05:00.131Z,99616.68
2019-05-12T15:07:51.128Z,99616.96
2019-05-12T15:10:16.388Z,99620.25
2019-05-12T15:12:47.825Z,99620.13
2019-05-12T15:15:24.276Z,99630.42
2019-05-12T15:18:03.669Z,99630.42
2019-05-12T15:20:29.145Z,99623.92
2019-05-12T15:23:00.726Z,99631.61
2019-05-12T15:25:35.319Z,99631.61
2019-05-12T15:28:23.812Z,99637.44
2019-05-12T15:31:04.112Z,99639.34
2019-05-12T15:33:35.528Z,99640.64
2019-05-12T15:36:13.687Z,99648.64
2019-05-12T15:38:49.061Z,99651.80
2019-05-12T15:41:20.479Z,99650.98
2019-05-12T15:43:55.937Z,99660.41
2019-05-12T15:46:43.463Z,99656.05
2019-05-12T15:49:49.423Z,99659.34
2019-05-12T15:52:54.686Z,99663.13
2019-05-12T15:55:32.825Z,99676.95
2019-05-12T15:58:36.754Z,99678.60
2019-05-12T16:01:30.329Z,99681.55
2019-05-12T16:04:15.412Z,99685.17
2019-05-12T16:07:29.480Z,99698.17
2019-05-12T16:10:04.710Z,99698.36
2019-05-12T16:13:15.495Z,99697.57
2019-05-12T16:16:02.868Z,99703.09
2019-05-12T16:18:50.642Z,99713.14
2019-05-12T16:21:56.753Z,99707.22
2019-05-12T16:24:34.077Z,99707.50
2019-05-12T16:27:41.433Z,99708.46
2019-05-12T16:30:20.319Z,99711.92
2019-05-12T16:32:50.861Z,99722.05
2019-05-12T16:35:59.897Z,99718.48
2019-05-12T16:38:33.515Z,99729.04
2019-05-12T16:44:30.418Z,99734.78
2019-05-12T16:47:04.152Z,99732.34
2019-05-12T16:50:15.754Z,99740.83
2019-05-12T16:53:02.243Z,99735.19
2019-05-12T16:56:09.607Z,99739.50
2019-05-12T16:59:21.962Z,99741.56
2019-05-12T17:02:38.380Z,99747.59
2019-05-12T17:05:35.469Z,99748.61
2019-05-12T17:08:43.795Z,99755.16
2019-05-12T17:11:52.820Z,99758.84
2019-05-12T17:14:24.200Z,99761.09
2019-05-12T17:17:33.559Z,99772.55
2019-05-12T17:20:28.812Z,99775.62
2019-05-12T17:23:00.552Z,99778.80
2019-05-12T17:25:44.819Z,99776.36
2019-05-12T17:28:26.525Z,99777.06
2019-05-12T17:30:59.578Z,99786.69
2019-05-12T17:33:31.076Z,99783.52
2019-05-12T17:36:11.819Z,99784.12
2019-05-12T17:38:51.168Z,99787.32
2019-05-12T17:41:31.436Z,99784.34
2019-05-12T17:44:04.369Z,99793.24
2019-05-12T17:46:47.485Z,99791.62
2019-05-12T17:49:34.793Z,99788.14
2019-05-12T17:52:13.114Z,99794.29
2019-05-12T17:54:47.623Z,99796.22
2019-05-12T17:57:20.091Z,99797.97
2019-05-12T18:00:06.319Z,99795.08
2019-05-12T18:02:49.320Z,99805.53
2019-05-12T18:05:19.260Z,99813.01
2019-05-12T18:08:07.402Z,99811.36
2019-05-12T18:10:43.493Z,99818.73
2019-05-12T18:13:29.239Z,99816.80
2019-05-12T18:16:11.491Z,99817.81
2019-05-12T18:18:59.547Z,99818.86
2019-05-12T18:21:31.170Z,99829.70
2019-05-12T18:24:08.848Z,99833.47
2019-05-12T18:26:40.286Z,99836.63
2019-05-12T18:29:28.220Z,99852.00
2019-05-12T18:32:24.209Z,99851.80
2019-05-12T18:34:56.697Z,99850.98
2019-05-12T18:37:28.926Z,99864.19
2019-05-12T18:40:04.096Z,99869.61
2019-05-12T18:42:41.214Z,99871.44
2019-05-12T18:48:14.314Z,99864.39
2019-05-12T18:50:50.242Z,99856.92
2019-05-12T18:53:31.301Z,99859.79
2019-05-12T18:56:21.901Z,99861.50
2019-05-12T18:59:11.640Z,99846.48
2019-05-12T19:01:40.359Z,99858.85
2019-05-12T19:04:14.167Z,99865.91
2019-05-12T19:06:59.355Z,99866.72
2019-05-12T19:09:33.501Z,99867.12
2019-05-12T19:12:16.059Z,99872.34
2019-05-12T19:14:54.717Z,99872.13
2019-05-12T19:17:39.966Z,99877.45
2019-05-12T19:20:19.569Z,99875.09
2019-05-12T19:22:59.384Z,99872.11
2019-05-12T19:25:30.156Z,99872.65
2019-05-12T19:31:00.830Z,99877.55
2019-05-12T19:33:27.990Z,99872.83
2019-05-12T19:36:19.466Z,99886.53
2019-05-12T19:38:50.759Z,99880.20
2019-05-12T19:41:24.689Z,99893.58
2019-05-12T19:43:56.914Z,99896.23
2019-05-12T19:46:39.804Z,99902.48
2019-05-12T19:49:09.438Z,99904.93
2019-05-12T19:51:40.846Z,99910.25
2019-05-12T19:54:13.978Z,99908.41
2019-05-12T19:56:46.972Z,99915.24
2019-05-12T19:59:18.404Z,99912.30
2019-05-12T20:01:49.711Z,99917.40
2019-05-12T20:04:30.790Z,99932.23
2019-05-12T20:06:54.557Z,99934.39
2019-05-12T20:09:26.049Z,99935.00
2019-05-12T20:12:01.350Z,99933.17
2019-05-12T20:14:30.371Z,99920.59
2019-05-12T20:25:53.657Z,99915.27
2019-05-12T20:28:26.539Z,99915.70
2019-05-12T20:31:03.868Z,99915.30
2019-05-12T20:34:11.131Z,99920.91
2019-05-12T20:40:04.407Z,99923.56
2019-05-12T20:43:07.852Z,99921.95
2019-05-12T20:51:34.494Z,99913.47
2019-05-12T20:58:08.152Z,99918.89
2019-05-12T21:01:07.287Z,99923.41
2019-05-12T21:03:52.091Z,99928.91
2019-05-12T21:06:41.560Z,99937.20
2019-05-12T21:09:34.887Z,99941.81
2019-05-12T21:20:24.801Z,99938.54
2019-05-12T21:23:07.137Z,99939.97
2019-05-12T21:25:52.088Z,99947.34
2019-05-12T21:28:23.641Z,99938.32
2019-05-12T21:30:56.046Z,99936.89
2019-05-12T21:33:31.281Z,99940.87
2019-05-12T21:36:03.649Z,99936.89
2019-05-12T21:38:36.663Z,99941.20
2019-05-12T21:41:10.009Z,99940.37
2019-05-12T21:43:54.406Z,99944.47
2019-05-12T21:46:27.910Z,99939.97
2019-05-12T21:49:15.491Z,99932.60
2019-05-12T21:57:31.173Z,99931.09
2019-05-12T21:59:59.892Z,99939.86
2019-05-12T22:02:34.126Z,99948.77
2019-05-12T22:05:06.599Z,99937.55
2019-05-12T22:07:39.928Z,99936.50
2019-05-12T22:10:15.351Z,99938.98
2019-05-12T22:12:44.747Z,99940.31
2019-05-12T22:15:28.167Z,99950.23
2019-05-12T22:18:04.168Z,99955.55
2019-05-12T22:20:35.242Z,99951.55
2019-05-12T22:23:11.545Z,99956.48
2019-05-12T22:25:40.427Z,99950.55
2019-05-12T22:28:15.188Z,99958.81
2019-05-12T22:30:46.511Z,99952.06
2019-05-12T22:33:20.803Z,99952.69
2019-05-12T22:36:04.726Z,99956.69
2019-05-12T22:38:25.400Z,99956.69
2019-05-12T22:40:59.561Z,99963.55
2019-05-12T22:43:31.568Z,99960.06
2019-05-12T22:46:04.538Z,99960.06
2019-05-12T22:48:40.607Z,99965.58
2019-05-12T22:51:23.170Z,99962.12
2019-05-12T22:53:47.054Z,99965.58
2019-05-12T22:56:18.518Z,99963.23
2019-05-12T22:58:52.130Z,99965.67
2019-05-12T23:01:34.666Z,99962.12
2019-05-12T23:04:03.667Z,99953.50
2019-05-12T23:06:42.236Z,99953.50
2019-05-12T23:09:09.277Z,99953.20
2019-05-12T23:11:40.782Z,99951.88
2019-05-12T23:14:20.755Z,99951.05
2019-05-12T23:16:46.919Z,99933.86
2019-05-12T23:19:18.398Z,99937.53
2019-05-12T23:21:57.157Z,99933.55
2019-05-12T23:24:23.760Z,99926.89
2019-05-12T23:26:55.411Z,99925.47
2019-05-12T23:29:31.012Z,99926.00
2019-05-12T23:32:07.494Z,99923.73
2019-05-12T23:34:34.811Z,99935.41
2019-05-12T23:37:06.597Z,99937.57
2019-05-12T23:39:40.369Z,99939.59
2019-05-12T23:42:13.623Z,99936.11
2019-05-12T23:44:45.265Z,99942.17
2019-05-12T23:47:16.820Z,99949.95
2019-05-12T23:49:48.300Z,99952.29
2019-05-12T23:52:40.178Z,99948.37
2019-05-12T23:55:13.804Z,99952.38
2019-05-12T23:57:45.071Z,99965.06
